Time;durP1;ratioP1;P1;durP2;ratioP2;P2;SDS_P1;SDS_P2;PMS_P1;PMS_P2;Temp;Humidity;BMP_temperature;BMP_pressure;BME280_temperature;BME280_humidity;BME280_pressure;Samples;Min_cycle;Max_cycle;Signal;HPM_P1;HPM_P2
2023/03/18 00:01:15;;;;;;;9.55;6.70;;;12.10;99.90;;;;;;6210079;23;20139;-83
2023/03/18 00:03:41;;;;;;;10.63;6.93;;;12.10;99.90;;;;;;6212053;23;20044;-83
2023/03/18 00:06:12;;;;;;;12.60;7.00;;;12.10;99.90;;;;;;6210332;23;20026;-83
2023/03/18 00:08:39;;;;;;;11.45;6.93;;;12.10;99.90;;;;;;6209812;23;20446;-83
2023/03/18 00:11:07;;;;;;;12.05;7.30;;;12.10;99.90;;;;;;6212304;23;20015;-83
2023/03/18 00:13:33;;;;;;;10.00;6.45;;;12.10;99.90;;;;;;6209723;23;20016;-82
2023/03/18 00:16:03;;;;;;;10.07;6.70;;;12.10;99.90;;;;;;6210295;23;20023;-83
2023/03/18 00:18:31;;;;;;;10.98;6.90;;;12.10;99.90;;;;;;6209995;23;20016;-84
2023/03/18 00:20:59;;;;;;;11.55;6.80;;;12.10;99.90;;;;;;6210601;23;20025;-83
2023/03/18 00:23:26;;;;;;;11.57;6.65;;;12.20;99.90;;;;;;6212112;23;20009;-84
2023/03/18 00:25:55;;;;;;;12.13;7.72;;;12.20;99.90;;;;;;6212846;23;20012;-83
2023/03/18 00:28:24;;;;;;;11.57;7.60;;;12.20;99.90;;;;;;6211154;23;20012;-83
2023/03/18 00:30:50;;;;;;;11.13;7.18;;;12.20;99.90;;;;;;6210575;23;20017;-84
2023/03/18 00:33:17;;;;;;;12.50;6.95;;;12.10;99.90;;;;;;6210708;23;20016;-83
2023/03/18 00:35:44;;;;;;;10.77;7.18;;;12.10;99.90;;;;;;6209897;23;20073;-83
2023/03/18 00:38:19;;;;;;;12.05;7.55;;;12.10;99.90;;;;;;6210168;23;20326;-83
2023/03/18 00:40:52;;;;;;;11.27;7.43;;;12.10;99.90;;;;;;6209985;23;20402;-84
2023/03/18 00:43:28;;;;;;;12.88;8.88;;;12.10;99.90;;;;;;6211786;23;20019;-84
2023/03/18 00:45:57;;;;;;;11.00;8.15;;;12.10;99.90;;;;;;6210324;23;20087;-83
2023/03/18 00:48:24;;;;;;;13.25;9.02;;;12.10;99.90;;;;;;6209285;23;20048;-83
2023/03/18 00:50:50;;;;;;;12.73;9.80;;;12.10;99.90;;;;;;6209138;23;20013;-84
2023/03/18 00:53:16;;;;;;;14.20;10.07;;;12.10;99.90;;;;;;6209474;23;20083;-83
2023/03/18 00:55:42;;;;;;;15.68;10.75;;;12.10;99.90;;;;;;6209364;23;20040;-83
2023/03/18 00:58:09;;;;;;;15.50;10.70;;;12.00;99.90;;;;;;6210317;23;20020;-83
2023/03/18 01:00:37;;;;;;;14.85;11.18;;;12.00;99.90;;;;;;6184224;23;20012;-82
2023/03/18 01:03:03;;;;;;;16.50;11.18;;;11.90;99.90;;;;;;6212363;23;20021;-83
2023/03/18 01:05:31;;;;;;;13.57;11.93;;;11.90;99.90;;;;;;6211484;23;20387;-84
2023/03/18 01:07:57;;;;;;;14.93;12.00;;;11.90;99.90;;;;;;6210307;23;20176;-84
2023/03/18 01:10:23;;;;;;;16.67;12.13;;;11.80;99.90;;;;;;6209460;23;20478;-83
2023/03/18 01:12:49;;;;;;;17.27;12.32;;;11.70;99.90;;;;;;6211186;23;20009;-83
2023/03/18 01:15:17;;;;;;;16.55;13.25;;;11.70;99.90;;;;;;6209570;23;20039;-84
2023/03/18 01:17:44;;;;;;;16.42;13.80;;;11.60;99.90;;;;;;6208826;23;20110;-83
2023/03/18 01:20:12;;;;;;;15.45;12.88;;;11.60;99.90;;;;;;6211315;23;20016;-83
2023/03/18 01:22:40;;;;;;;16.58;13.05;;;11.50;99.90;;;;;;6210871;23;20016;-83
2023/03/18 01:25:07;;;;;;;16.30;12.90;;;11.40;99.90;;;;;;6210664;23;20067;-83
2023/03/18 01:27:33;;;;;;;18.48;13.93;;;11.30;99.90;;;;;;6210851;23;20016;-84
2023/03/18 01:29:59;;;;;;;16.40;13.60;;;11.20;99.90;;;;;;6210461;23;20020;-84
2023/03/18 01:32:24;;;;;;;16.88;14.50;;;11.10;99.90;;;;;;6209515;23;20020;-83
2023/03/18 01:34:50;;;;;;;16.70;14.27;;;11.00;99.90;;;;;;6184525;23;20072;-83
2023/03/18 01:37:16;;;;;;;17.90;15.10;;;10.90;99.90;;;;;;6213203;23;20013;-84
2023/03/18 01:39:41;;;;;;;16.98;14.63;;;10.70;99.90;;;;;;6212031;23;20009;-84
2023/03/18 01:42:07;;;;;;;16.80;15.13;;;10.70;99.90;;;;;;6214449;23;20008;-86
2023/03/18 01:44:33;;;;;;;18.50;15.25;;;10.60;99.90;;;;;;6214666;23;20036;-84
2023/03/18 01:46:58;;;;;;;17.40;15.60;;;10.50;99.90;;;;;;6214530;23;20043;-84
2023/03/18 01:49:34;;;;;;;19.20;16.08;;;10.50;99.90;;;;;;6213236;23;20509;-83
2023/03/18 01:52:20;;;;;;;19.33;16.20;;;10.40;99.90;;;;;;6212269;23;20329;-84
2023/03/18 01:54:54;;;;;;;17.48;14.63;;;10.30;99.90;;;;;;6211853;23;20059;-84
2023/03/18 01:57:22;;;;;;;18.52;16.40;;;10.20;99.90;;;;;;6210784;23;20071;-84
2023/03/18 01:59:51;;;;;;;17.52;15.50;;;10.10;99.90;;;;;;6213181;23;20012;-84
2023/03/18 02:02:17;;;;;;;18.52;15.45;;;9.90;99.90;;;;;;6211004;23;20019;-83
2023/03/18 02:05:05;;;;;;;17.80;15.93;;;9.90;99.90;;;;;;6186047;23;20016;-84
2023/03/18 02:07:33;;;;;;;19.52;16.23;;;9.80;99.90;;;;;;6210716;23;20043;-83
2023/03/18 02:10:02;;;;;;;18.27;16.23;;;9.80;99.90;;;;;;6212769;23;20012;-83
2023/03/18 02:12:32;;;;;;;18.70;16.23;;;9.90;99.90;;;;;;6184848;23;20405;-84
2023/03/18 02:15:03;;;;;;;19.15;16.02;;;10.00;99.90;;;;;;6160977;23;20020;-84
2023/03/18 02:17:31;;;;;;;;;;;10.00;99.90;;;;;;6183610;23;20012;-84
2023/03/18 02:20:33;;;;;;;18.88;16.48;;;10.00;99.90;;;;;;6212209;23;19912;-83
2023/03/18 02:23:18;;;;;;;19.10;17.05;;;10.00;99.90;;;;;;6185834;23;20017;-84
2023/03/18 02:25:58;;;;;;;22.52;19.60;;;10.20;99.90;;;;;;6212829;23;20017;-84
2023/03/18 02:28:27;;;;;;;21.25;18.98;;;10.30;99.90;;;;;;6184935;23;20431;-84
2023/03/18 02:30:56;;;;;;;21.42;19.23;;;10.30;99.90;;;;;;6185213;23;20012;-84
2023/03/18 02:33:25;;;;;;;23.88;20.40;;;10.40;99.90;;;;;;6211678;23;20013;-84
2023/03/18 02:35:59;;;;;;;22.83;20.42;;;10.40;99.90;;;;;;6185518;23;20008;-84
2023/03/18 02:38:25;;;;;;;24.00;21.52;;;10.50;99.90;;;;;;6184145;23;20025;-84
2023/03/18 02:40:52;;;;;;;25.55;21.88;;;10.50;99.90;;;;;;6185710;23;20438;-83
2023/03/18 02:43:26;;;;;;;24.75;22.15;;;10.50;99.90;;;;;;6185242;23;20026;-84
2023/03/18 02:46:13;;;;;;;24.55;21.98;;;10.50;99.90;;;;;;6184849;23;20092;-83
2023/03/18 02:48:42;;;;;;;25.83;22.83;;;10.60;99.90;;;;;;6184478;23;20023;-83
2023/03/18 02:51:09;;;;;;;25.42;22.83;;;10.60;99.90;;;;;;6185629;23;20350;-83
2023/03/18 02:53:36;;;;;;;26.02;23.00;;;10.70;99.90;;;;;;6210533;23;20059;-83
2023/03/18 02:56:02;;;;;;;25.95;23.20;;;10.60;99.90;;;;;;6185779;23;20020;-83
2023/03/18 02:58:28;;;;;;;26.00;23.38;;;10.70;99.90;;;;;;6184377;23;20461;-83
2023/03/18 03:00:54;;;;;;;26.33;23.17;;;10.60;99.90;;;;;;6184947;23;20099;-84
2023/03/18 03:03:20;;;;;;;25.20;22.55;;;10.60;99.90;;;;;;6211007;23;20331;-84
2023/03/18 03:05:46;;;;;;;25.65;23.05;;;10.60;99.90;;;;;;6210952;23;20016;-84
2023/03/18 03:08:14;;;;;;;24.27;21.88;;;10.50;99.90;;;;;;6184802;23;20012;-83
2023/03/18 03:10:40;;;;;;;25.67;23.08;;;10.40;99.90;;;;;;6211169;23;20102;-84
2023/03/18 03:13:06;;;;;;;24.77;22.25;;;10.30;99.90;;;;;;6185345;23;20084;-84
2023/03/18 03:15:32;;;;;;;25.90;23.30;;;10.30;99.90;;;;;;6210455;23;20012;-84
2023/03/18 03:17:58;;;;;;;25.27;22.73;;;10.20;99.90;;;;;;6184955;23;20350;-84
2023/03/18 03:20:24;;;;;;;24.83;22.33;;;10.10;99.90;;;;;;6184459;23;20008;-84
2023/03/18 03:22:50;;;;;;;24.40;21.83;;;10.10;99.90;;;;;;6211600;23;20019;-84
2023/03/18 03:25:16;;;;;;;24.40;21.80;;;10.00;99.90;;;;;;6184468;23;20012;-83
2023/03/18 03:27:42;;;;;;;23.80;21.48;;;10.00;99.90;;;;;;6184444;23;20517;-84
2023/03/18 03:30:10;;;;;;;24.98;22.48;;;9.90;99.90;;;;;;6211404;23;20016;-84
2023/03/18 03:32:36;;;;;;;26.15;23.45;;;9.90;99.90;;;;;;6184379;23;20056;-84
2023/03/18 03:35:04;;;;;;;25.92;23.38;;;9.80;99.90;;;;;;6185020;23;20084;-84
2023/03/18 03:37:29;;;;;;;27.80;24.90;;;9.80;99.90;;;;;;6184090;23;20017;-84
2023/03/18 03:39:55;;;;;;;26.73;23.40;;;9.80;99.90;;;;;;6212340;23;20020;-84
2023/03/18 03:42:21;;;;;;;26.83;24.13;;;9.70;99.90;;;;;;6211015;23;20012;-84
2023/03/18 03:44:46;;;;;;;26.95;24.35;;;9.70;99.90;;;;;;6211098;23;20070;-84
2023/03/18 03:47:12;;;;;;;28.42;25.63;;;9.70;99.90;;;;;;6184691;23;20016;-84
2023/03/18 03:49:38;;;;;;;27.58;24.77;;;9.70;99.90;;;;;;6183442;23;20032;-84
2023/03/18 03:52:04;;;;;;;29.08;25.65;;;9.70;99.90;;;;;;6212062;23;20009;-83
2023/03/18 03:54:30;;;;;;;27.80;25.00;;;9.70;99.90;;;;;;6183845;23;20023;-84
2023/03/18 03:56:56;;;;;;;26.98;24.38;;;9.70;99.90;;;;;;6184387;23;20017;-84
2023/03/18 03:59:22;;;;;;;27.40;24.70;;;9.70;99.90;;;;;;6183554;23;20024;-84
2023/03/18 04:01:47;;;;;;;27.02;24.30;;;9.70;99.90;;;;;;6184440;23;20347;-83
2023/03/18 04:04:13;;;;;;;28.02;25.23;;;9.60;99.90;;;;;;6210202;23;20453;-83
2023/03/18 04:06:39;;;;;;;28.67;25.83;;;9.60;99.90;;;;;;6210500;23;20023;-83
2023/03/18 04:09:04;;;;;;;28.27;25.50;;;9.60;99.90;;;;;;6211850;23;20091;-84
2023/03/18 04:11:30;;;;;;;27.48;24.60;;;9.60;99.90;;;;;;6184177;23;20094;-84
2023/03/18 04:13:56;;;;;;;27.63;24.80;;;9.60;99.90;;;;;;6210675;23;20442;-84
2023/03/18 04:16:22;;;;;;;27.33;24.63;;;9.60;99.90;;;;;;6210939;23;20066;-84
2023/03/18 04:18:47;;;;;;;27.85;25.23;;;9.60;99.90;;;;;;6210834;23;20020;-84
2023/03/18 04:21:13;;;;;;;30.42;27.42;;;9.60;99.90;;;;;;6184340;23;20496;-84
2023/03/18 04:23:39;;;;;;;28.67;25.88;;;9.50;99.90;;;;;;6184239;23;20051;-84
2023/03/18 04:26:05;;;;;;;29.08;26.23;;;9.50;99.90;;;;;;6185101;23;20092;-84
2023/03/18 04:28:31;;;;;;;28.08;25.38;;;9.50;99.90;;;;;;6182858;23;20027;-84
2023/03/18 04:30:57;;;;;;;31.17;27.83;;;9.50;99.90;;;;;;6184562;23;20016;-83
2023/03/18 04:33:23;;;;;;;30.08;27.20;;;9.50;99.90;;;;;;6183367;23;20066;-84
2023/03/18 04:35:49;;;;;;;30.23;27.30;;;9.50;99.90;;;;;;6210397;23;20023;-84
2023/03/18 04:38:14;;;;;;;32.22;28.98;;;9.40;99.90;;;;;;6184797;23;20075;-84
2023/03/18 04:40:41;;;;;;;31.98;28.77;;;9.40;99.90;;;;;;6183871;23;20040;-84
2023/03/18 04:43:08;;;;;;;31.10;27.98;;;9.40;99.90;;;;;;6158909;23;20065;-84
2023/03/18 04:45:34;;;;;;;32.85;29.42;;;9.40;99.90;;;;;;6158944;23;20012;-84
2023/03/18 04:48:00;;;;;;;32.63;29.52;;;9.40;99.90;;;;;;6210795;23;20331;-84
2023/03/18 04:50:27;;;;;;;34.38;30.88;;;9.40;99.90;;;;;;6183229;23;20534;-86
2023/03/18 04:52:53;;;;;;;35.53;32.03;;;9.30;99.90;;;;;;6211004;23;20083;-84
2023/03/18 04:55:20;;;;;;;35.50;32.13;;;9.40;99.90;;;;;;6210678;23;20102;-84
2023/03/18 04:57:47;;;;;;;35.78;32.38;;;9.40;99.90;;;;;;6210313;23;20015;-84
2023/03/18 05:00:16;;;;;;;33.17;30.08;;;9.40;99.90;;;;;;6210997;23;20059;-84
2023/03/18 05:02:42;;;;;;;34.50;31.40;;;9.40;99.90;;;;;;6209810;23;20035;-83
2023/03/18 05:05:09;;;;;;;35.17;31.67;;;9.40;99.90;;;;;;6158388;23;20020;-83
2023/03/18 05:07:35;;;;;;;34.08;30.95;;;9.40;99.90;;;;;;6182944;23;20072;-84
2023/03/18 05:10:07;;;;;;;32.45;29.35;;;9.40;99.90;;;;;;6202446;23;20012;-84
2023/03/18 05:12:34;;;;;;;31.35;28.40;;;9.40;99.90;;;;;;6209912;23;20062;-84
2023/03/18 05:15:00;;;;;;;33.78;30.67;;;9.40;99.90;;;;;;6209417;23;20027;-85
2023/03/18 05:17:26;;;;;;;33.70;30.55;;;9.40;99.90;;;;;;6210266;23;20040;-84
2023/03/18 05:19:52;;;;;;;33.33;30.13;;;9.40;99.90;;;;;;6184650;23;20008;-85
2023/03/18 05:22:19;;;;;;;33.63;30.33;;;9.40;99.90;;;;;;6208710;23;20016;-83
2023/03/18 05:24:45;;;;;;;34.70;31.10;;;9.40;99.90;;;;;;6210555;23;20323;-84
2023/03/18 05:27:13;;;;;;;35.47;31.88;;;9.40;99.90;;;;;;6209586;23;20019;-84
2023/03/18 05:29:41;;;;;;;34.63;31.25;;;9.40;99.90;;;;;;6210260;23;20417;-84
2023/03/18 05:32:08;;;;;;;35.40;31.90;;;9.40;99.90;;;;;;6210973;23;20008;-84
2023/03/18 05:34:36;;;;;;;32.97;29.70;;;9.30;99.90;;;;;;6204570;23;20017;-84
2023/03/18 05:37:03;;;;;;;34.30;31.00;;;9.40;99.90;;;;;;6209431;23;20012;-84
2023/03/18 05:39:30;;;;;;;33.90;30.67;;;9.40;99.90;;;;;;6207830;23;20015;-84
2023/03/18 05:41:56;;;;;;;28.58;25.92;;;9.40;99.90;;;;;;6206452;23;20338;-84
2023/03/18 05:44:22;;;;;;;29.35;26.35;;;9.50;99.90;;;;;;6208506;23;20023;-84
2023/03/18 05:46:49;;;;;;;27.92;25.23;;;9.50;99.90;;;;;;6209461;23;20017;-83
2023/03/18 05:49:15;;;;;;;27.35;24.70;;;9.50;99.90;;;;;;6207170;23;20013;-83
2023/03/18 05:51:41;;;;;;;27.60;24.92;;;9.60;99.90;;;;;;6205808;23;20031;-83
2023/03/18 05:54:08;;;;;;;28.65;25.75;;;9.70;99.90;;;;;;6207906;23;20031;-83
2023/03/18 05:56:33;;;;;;;26.65;24.05;;;9.70;99.90;;;;;;6207688;23;20079;-83
2023/03/18 05:58:59;;;;;;;28.23;25.50;;;9.70;99.90;;;;;;6207860;23;20008;-83
2023/03/18 06:01:25;;;;;;;28.60;25.90;;;9.70;99.90;;;;;;6206994;23;20016;-83
2023/03/18 06:03:52;;;;;;;27.02;24.33;;;9.70;99.90;;;;;;6207795;23;20008;-87
2023/03/18 06:06:18;;;;;;;27.58;24.88;;;9.70;99.90;;;;;;6207691;23;20023;-84
2023/03/18 06:08:45;;;;;;;29.45;26.52;;;9.70;99.90;;;;;;6207532;23;20087;-83
2023/03/18 06:11:11;;;;;;;29.25;26.35;;;9.70;99.90;;;;;;6208502;23;20025;-85
2023/03/18 06:13:37;;;;;;;26.75;24.15;;;9.70;99.90;;;;;;6209215;23;20063;-85
2023/03/18 06:16:03;;;;;;;28.08;25.13;;;9.70;99.90;;;;;;6212985;23;20055;-85
2023/03/18 06:18:29;;;;;;;26.55;24.02;;;9.60;99.90;;;;;;6208345;23;20009;-85
2023/03/18 06:20:56;;;;;;;25.80;23.05;;;9.70;99.90;;;;;;6210544;23;20375;-84
2023/03/18 06:23:22;;;;;;;26.17;23.58;;;9.70;99.90;;;;;;6210065;23;20069;-85
2023/03/18 06:25:48;;;;;;;25.88;23.10;;;9.70;99.90;;;;;;6205142;23;20028;-83
2023/03/18 06:28:14;;;;;;;25.27;22.77;;;9.70;99.90;;;;;;6207976;23;20173;-84
2023/03/18 06:30:40;;;;;;;25.67;23.05;;;9.70;99.90;;;;;;6211567;23;20008;-84
2023/03/18 06:33:07;;;;;;;25.60;22.90;;;9.70;99.90;;;;;;6187563;23;20016;-85
2023/03/18 06:35:33;;;;;;;24.80;22.33;;;9.70;99.90;;;;;;6211714;23;20067;-86
2023/03/18 06:37:58;;;;;;;25.35;22.75;;;9.70;99.90;;;;;;6213361;23;20020;-86
2023/03/18 06:40:24;;;;;;;25.27;22.85;;;9.70;99.90;;;;;;6210060;23;20476;-85
2023/03/18 06:42:50;;;;;;;26.63;23.77;;;9.70;99.90;;;;;;6210299;23;20016;-86
2023/03/18 06:45:16;;;;;;;26.55;23.85;;;9.70;99.90;;;;;;6207483;23;20051;-86
2023/03/18 06:47:43;;;;;;;25.65;23.20;;;9.80;99.90;;;;;;6208166;23;20082;-83
2023/03/18 06:50:09;;;;;;;26.55;23.90;;;9.80;99.90;;;;;;6208917;23;20023;-84
2023/03/18 06:52:36;;;;;;;26.05;23.35;;;9.80;99.90;;;;;;6208602;23;20043;-84
2023/03/18 06:55:03;;;;;;;26.85;24.10;;;9.90;99.90;;;;;;6211079;23;20013;-84
2023/03/18 06:57:29;;;;;;;26.20;23.52;;;10.00;99.90;;;;;;6210347;23;20016;-86
2023/03/18 06:59:54;;;;;;;26.15;23.35;;;10.00;99.90;;;;;;6210389;23;20446;-85
2023/03/18 07:02:22;;;;;;;24.90;22.30;;;10.10;99.90;;;;;;6211708;23;20017;-88
2023/03/18 07:04:48;;;;;;;26.23;23.58;;;10.10;99.90;;;;;;6212388;23;20016;-86
2023/03/18 07:07:14;;;;;;;24.58;22.10;;;10.20;99.90;;;;;;6209021;23;20021;-87
2023/03/18 07:09:42;;;;;;;24.33;21.73;;;10.30;99.90;;;;;;6208133;23;20028;-84
2023/03/18 07:12:09;;;;;;;24.23;21.83;;;10.40;99.90;;;;;;6206420;23;20346;-84
2023/03/18 07:14:35;;;;;;;23.58;21.27;;;10.50;99.90;;;;;;6206454;23;20020;-85
2023/03/18 07:17:01;;;;;;;24.35;21.60;;;10.60;99.90;;;;;;6209101;23;20095;-85
2023/03/18 07:19:27;;;;;;;22.65;20.35;;;10.70;99.90;;;;;;6210605;23;20019;-85
2023/03/18 07:21:53;;;;;;;23.10;20.55;;;10.70;99.90;;;;;;6210997;23;20008;-84
2023/03/18 07:24:20;;;;;;;22.63;20.20;;;10.80;99.90;;;;;;6208158;23;20024;-84
2023/03/18 07:26:46;;;;;;;23.42;20.30;;;10.80;99.90;;;;;;6182487;23;20048;-84
2023/03/18 07:29:11;;;;;;;21.98;19.83;;;10.80;99.90;;;;;;6207308;23;20008;-85
2023/03/18 07:31:37;;;;;;;22.20;19.55;;;10.90;99.90;;;;;;6208237;23;20016;-85
2023/03/18 07:34:03;;;;;;;21.83;19.45;;;10.90;99.90;;;;;;6209956;23;20090;-84
2023/03/18 07:36:29;;;;;;;23.60;20.45;;;10.90;99.90;;;;;;6207772;23;20322;-84
2023/03/18 07:38:55;;;;;;;22.08;19.75;;;11.00;99.90;;;;;;6209077;23;20016;-84
2023/03/18 07:41:21;;;;;;;22.33;19.77;;;11.00;99.90;;;;;;6208532;23;20012;-83
2023/03/18 07:43:47;;;;;;;23.90;20.00;;;11.00;99.90;;;;;;6211137;23;20031;-83
2023/03/18 07:46:13;;;;;;;22.50;20.20;;;10.90;99.90;;;;;;6208640;23;20466;-83
2023/03/18 07:48:38;;;;;;;23.30;20.80;;;10.90;99.90;;;;;;6210322;23;20016;-84
2023/03/18 07:51:04;;;;;;;24.70;22.10;;;10.90;99.90;;;;;;6207620;23;20016;-83
2023/03/18 07:53:30;;;;;;;25.08;22.48;;;10.90;99.90;;;;;;6208047;23;20012;-84
2023/03/18 07:55:56;;;;;;;25.90;23.15;;;10.90;99.90;;;;;;6208578;23;20051;-85
2023/03/18 07:58:21;;;;;;;25.85;23.15;;;10.80;99.90;;;;;;6209489;23;20051;-86
2023/03/18 08:00:48;;;;;;;26.30;23.60;;;10.80;99.90;;;;;;6208955;23;20076;-85
2023/03/18 08:03:14;;;;;;;27.85;24.95;;;10.80;99.90;;;;;;6207998;23;20027;-85
2023/03/18 08:05:40;;;;;;;28.65;25.60;;;10.80;99.90;;;;;;6207075;23;20392;-85
2023/03/18 08:08:05;;;;;;;28.67;25.70;;;10.80;99.90;;;;;;6211663;23;20009;-85
2023/03/18 08:10:31;;;;;;;30.05;26.88;;;10.90;99.90;;;;;;6209899;23;20108;-85
2023/03/18 08:12:56;;;;;;;30.50;27.40;;;11.00;99.90;;;;;;6184156;23;20051;-85
2023/03/18 08:15:24;;;;;;;33.00;29.30;;;11.10;99.90;;;;;;6183188;23;20020;-84
2023/03/18 08:17:51;;;;;;;32.75;29.45;;;11.10;99.90;;;;;;6183539;23;20013;-84
2023/03/18 08:20:17;;;;;;;32.17;29.02;;;11.30;99.90;;;;;;6209761;23;20005;-85
2023/03/18 08:22:44;;;;;;;34.33;30.88;;;11.30;99.90;;;;;;6183934;23;20062;-85
2023/03/18 08:25:10;;;;;;;34.50;31.00;;;11.40;99.90;;;;;;6182824;23;20508;-86
2023/03/18 08:27:36;;;;;;;32.45;29.17;;;11.50;99.90;;;;;;6183361;23;20335;-85
2023/03/18 08:30:02;;;;;;;34.10;30.80;;;11.50;99.90;;;;;;6209682;23;20023;-84
2023/03/18 08:32:28;;;;;;;33.05;29.75;;;11.50;99.90;;;;;;6209640;23;20020;-84
2023/03/18 08:34:53;;;;;;;33.60;30.23;;;11.60;99.90;;;;;;6210375;23;20012;-83
2023/03/18 08:37:19;;;;;;;31.35;28.20;;;11.70;99.90;;;;;;6159252;23;20054;-86
2023/03/18 08:39:44;;;;;;;32.65;29.35;;;11.70;99.90;;;;;;6184652;23;20457;-87
2023/03/18 08:42:10;;;;;;;31.25;28.08;;;11.70;99.90;;;;;;6184222;23;20060;-85
2023/03/18 08:44:36;;;;;;;31.35;28.25;;;11.70;99.90;;;;;;6209056;23;20009;-84
2023/03/18 08:47:02;;;;;;;31.05;28.05;;;11.80;99.90;;;;;;6209559;23;20087;-82
2023/03/18 08:49:28;;;;;;;31.95;28.77;;;11.80;99.90;;;;;;6178844;23;20028;-83
2023/03/18 08:51:53;;;;;;;30.00;27.00;;;11.90;99.90;;;;;;6182367;23;20021;-84
2023/03/18 08:54:20;;;;;;;29.77;26.52;;;12.00;99.90;;;;;;6209941;23;20422;-83
2023/03/18 08:56:46;;;;;;;30.45;25.45;;;12.10;99.90;;;;;;6182805;23;20342;-84
2023/03/18 08:59:12;;;;;;;28.20;25.15;;;12.20;99.90;;;;;;6181484;23;20012;-84
2023/03/18 09:01:38;;;;;;;27.63;24.88;;;12.20;99.90;;;;;;6209892;23;20021;-84
2023/03/18 09:04:04;;;;;;;28.50;25.50;;;12.40;99.90;;;;;;6183464;23;20429;-84
2023/03/18 09:06:29;;;;;;;26.95;24.27;;;12.50;99.90;;;;;;6158080;23;20016;-84
2023/03/18 09:08:56;;;;;;;27.98;25.10;;;12.60;99.90;;;;;;6189079;23;20343;-84
2023/03/18 09:11:22;;;;;;;27.73;24.92;;;12.60;99.90;;;;;;6208815;23;20446;-84
2023/03/18 09:13:48;;;;;;;26.67;23.88;;;12.70;99.90;;;;;;6207158;23;20048;-84
2023/03/18 09:16:13;;;;;;;27.98;25.17;;;12.70;99.90;;;;;;6209224;23;20008;-84
2023/03/18 09:18:39;;;;;;;28.85;25.85;;;12.80;99.90;;;;;;6210069;23;20020;-84
2023/03/18 09:21:05;;;;;;;28.20;25.23;;;12.80;99.90;;;;;;6210750;23;20004;-84
2023/03/18 09:23:31;;;;;;;27.90;24.60;;;12.80;99.90;;;;;;6208581;23;20048;-84
2023/03/18 09:25:58;;;;;;;27.95;25.08;;;12.90;99.90;;;;;;6210000;23;20231;-84
2023/03/18 09:28:25;;;;;;;28.88;25.77;;;12.90;99.90;;;;;;6207688;23;20013;-84
2023/03/18 09:30:51;;;;;;;28.05;25.35;;;12.90;99.90;;;;;;6208795;23;20334;-84
2023/03/18 09:33:17;;;;;;;29.50;26.33;;;13.00;99.90;;;;;;6208317;23;20027;-83
2023/03/18 09:35:43;;;;;;;29.30;26.40;;;13.10;99.90;;;;;;6208009;23;20439;-84
2023/03/18 09:38:15;;;;;;;30.67;27.40;;;13.30;99.90;;;;;;6207986;23;20016;-84
2023/03/18 09:40:53;;;;;;;29.98;26.88;;;13.50;99.90;;;;;;6208459;23;20017;-85
2023/03/18 09:43:57;;;;;;;32.92;29.60;;;13.60;99.90;;;;;;6209457;23;20099;-85
2023/03/18 09:46:52;;;;;;;30.25;27.30;;;13.70;99.90;;;;;;6207451;23;20157;-94
2023/03/18 09:49:21;;;;;;;32.08;28.85;;;13.70;99.90;;;;;;6208686;23;20080;-86
2023/03/18 09:51:52;;;;;;;33.70;30.40;;;13.70;99.90;;;;;;6208707;23;20282;-85
2023/03/18 09:54:23;;;;;;;;;;;13.70;99.90;;;;;;6208208;23;20066;-86
2023/03/18 09:56:51;;;;;;;33.60;30.30;;;13.60;99.90;;;;;;6207032;23;19919;-85
2023/03/18 09:59:23;;;;;;;33.88;30.60;;;13.70;99.90;;;;;;6207723;23;20064;-84
2023/03/18 10:01:53;;;;;;;33.50;30.13;;;13.70;99.90;;;;;;6207486;23;20008;-84
2023/03/18 10:04:38;;;;;;;32.72;29.35;;;13.70;99.90;;;;;;6210066;23;20092;-86
2023/03/18 10:07:14;;;;;;;32.30;29.10;;;13.80;99.90;;;;;;6208041;23;20087;-85
2023/03/18 10:09:45;;;;;;;29.48;26.48;;;13.70;99.90;;;;;;6209111;23;20063;-85
2023/03/18 10:12:15;;;;;;;30.85;27.70;;;13.60;99.90;;;;;;6210219;23;20023;-86
2023/03/18 10:55:16;;;;;;;30.55;27.67;;;14.50;99.90;;;;;;6208951;23;20028;-83
2023/03/18 10:57:41;;;;;;;27.95;25.40;;;14.30;99.90;;;;;;6183780;23;20638;-83
2023/03/18 11:00:28;;;;;;;27.70;25.20;;;14.20;99.90;;;;;;6183581;23;20031;-82
2023/03/18 11:02:55;;;;;;;28.60;25.80;;;14.10;99.90;;;;;;6184625;23;20023;-84
2023/03/18 11:05:25;;;;;;;28.10;25.50;;;14.10;99.90;;;;;;6182497;23;20083;-84
2023/03/18 11:08:28;;;;;;;26.02;23.63;;;14.10;99.90;;;;;;6183424;23;20019;-84
2023/03/18 11:10:54;;;;;;;19.73;17.92;;;14.00;99.90;;;;;;6165888;23;20323;-88
2023/03/18 11:13:21;;;;;;;19.63;17.92;;;14.00;99.90;;;;;;6210546;23;20092;-88
2023/03/18 11:15:53;;;;;;;20.40;18.42;;;14.00;99.90;;;;;;6184205;23;20631;-85
2023/03/18 11:18:23;;;;;;;20.52;18.50;;;14.00;99.90;;;;;;6184845;23;20350;-88
2023/03/18 11:20:59;;;;;;;21.83;19.80;;;13.90;99.90;;;;;;6185349;23;20476;-82
2023/03/18 11:23:47;;;;;;;20.60;18.60;;;13.90;99.90;;;;;;6184515;23;20418;-85
2023/03/18 11:26:20;;;;;;;17.33;15.60;;;13.90;99.90;;;;;;6210060;23;20017;-84
2023/03/18 11:28:46;;;;;;;16.98;15.27;;;13.90;99.90;;;;;;6184790;23;20016;-85
2023/03/18 11:31:17;;;;;;;18.13;15.85;;;13.90;99.90;;;;;;6183520;23;20515;-85
2023/03/18 11:33:43;;;;;;;15.52;13.93;;;13.90;99.90;;;;;;6184753;23;20106;-88
2023/03/18 11:36:15;;;;;;;14.50;12.93;;;13.90;99.90;;;;;;6185034;23;20023;-89
2023/03/18 11:38:42;;;;;;;14.68;13.02;;;13.90;99.90;;;;;;6211137;23;20063;-89
2023/03/18 11:41:16;;;;;;;15.02;12.63;;;13.90;99.90;;;;;;6185680;23;20087;-91
2023/03/18 11:43:58;;;;;;;14.38;12.55;;;13.90;99.90;;;;;;6184356;23;20083;-88
2023/03/18 11:46:34;;;;;;;15.32;12.77;;;13.90;99.90;;;;;;6211721;23;20450;-87
2023/03/18 11:49:00;;;;;;;14.48;12.98;;;14.00;99.90;;;;;;6185127;23;20016;-90
2023/03/18 11:51:41;;;;;;;14.23;12.77;;;14.20;99.90;;;;;;6185683;23;20062;-90
2023/03/18 11:54:18;;;;;;;14.15;12.35;;;14.40;99.90;;;;;;6186785;23;20020;-90
2023/03/18 11:56:53;;;;;;;14.88;13.35;;;14.70;99.90;;;;;;6184752;23;20016;-86
2023/03/18 11:59:27;;;;;;;14.93;13.43;;;14.80;99.90;;;;;;6184217;23;20020;-87
2023/03/18 12:01:59;;;;;;;15.77;13.55;;;14.90;99.90;;;;;;6184860;23;20017;-86
2023/03/18 12:04:39;;;;;;;15.68;13.45;;;15.00;99.90;;;;;;6182665;23;20452;-84
2023/03/18 12:07:23;;;;;;;13.75;11.55;;;15.10;99.90;;;;;;6210920;23;20048;-86
2023/03/18 12:10:25;;;;;;;13.00;11.60;;;15.20;99.90;;;;;;6208874;23;20059;-86
2023/03/18 12:13:15;;;;;;;13.50;11.23;;;15.40;99.90;;;;;;6183249;23;20381;-83
2023/03/18 12:16:07;;;;;;;13.32;11.82;;;15.50;99.90;;;;;;6182651;23;20013;-83
2023/03/18 12:18:59;;;;;;;13.65;10.93;;;15.60;99.90;;;;;;6209942;23;20020;-86
2023/03/18 12:21:48;;;;;;;11.40;10.00;;;15.60;99.90;;;;;;6210129;23;20170;-84
2023/03/18 12:24:23;;;;;;;12.38;9.05;;;15.70;99.90;;;;;;6209566;23;20016;-82
2023/03/18 12:27:20;;;;;;;10.95;8.32;;;15.80;99.90;;;;;;6182338;23;20051;-83
2023/03/18 12:30:19;;;;;;;13.65;10.70;;;16.00;99.90;;;;;;6181597;23;20017;-83
2023/03/18 12:32:57;;;;;;;13.60;10.73;;;16.00;99.90;;;;;;6102808;23;20017;-85
2023/03/18 12:36:01;;;;;;;12.32;10.93;;;16.00;99.90;;;;;;6183099;23;20040;-86
2023/03/18 12:38:54;;;;;;;14.05;11.20;;;16.00;99.90;;;;;;6182476;23;20024;-85
2023/03/18 12:41:38;;;;;;;12.57;10.95;;;16.00;99.90;;;;;;6208645;23;20330;-85
2023/03/18 12:44:13;;;;;;;14.45;11.38;;;16.00;99.90;;;;;;6182441;23;20048;-85
2023/03/18 12:46:47;;;;;;;13.85;11.88;;;16.10;99.90;;;;;;6183146;23;20277;-84
2023/03/18 12:49:27;;;;;;;12.55;11.07;;;16.10;99.90;;;;;;6158331;23;20098;-85
2023/03/18 12:52:04;;;;;;;13.10;11.65;;;16.10;99.90;;;;;;6184405;23;20457;-84
2023/03/18 12:54:44;;;;;;;15.50;12.77;;;16.00;99.90;;;;;;6209837;23;20017;-85
2023/03/18 12:57:36;;;;;;;15.20;12.73;;;16.00;99.90;;;;;;6183103;23;20095;-84
2023/03/18 13:00:13;;;;;;;15.80;12.38;;;16.00;99.90;;;;;;6190139;23;20046;-84
2023/03/18 13:02:40;;;;;;;17.25;13.05;;;16.00;99.90;;;;;;6182745;23;20016;-85
2023/03/18 13:05:19;;;;;;;15.27;13.55;;;16.00;99.90;;;;;;6183477;23;20051;-85
2023/03/18 13:08:01;;;;;;;14.38;12.82;;;16.10;99.90;;;;;;6182223;23;20096;-85
2023/03/18 13:10:33;;;;;;;15.05;12.77;;;16.10;99.90;;;;;;6207583;23;20017;-85
2023/03/18 13:13:02;;;;;;;14.75;13.15;;;16.20;99.90;;;;;;6183994;23;20449;-85
2023/03/18 13:15:46;;;;;;;14.95;12.75;;;16.30;99.90;;;;;;6182520;23;20023;-85
2023/03/18 13:18:26;;;;;;;14.85;13.15;;;16.50;99.90;;;;;;6210918;23;20019;-85
2023/03/18 13:20:56;;;;;;;13.60;12.02;;;16.70;99.90;;;;;;6182830;23;20378;-85
2023/03/18 13:24:02;;;;;;;13.88;12.32;;;16.90;99.90;;;;;;6156802;23;20036;-85